Terminal Aerodrome Forecast
Issued by NWS Albuquerque, NM

Home | Current Version | Previous Version | Text Only | Print | Product List | Glossary On
Versions: 1 2 3 4 5 6 7 8 9 10 11 12 13 14 15 16 17 18 19
000
FTUS45 KABQ 212300
TAFABQ
TAF
KABQ 212340Z 2200/2224 16010KT P6SM VCSH SCT060 BKN090
     FM220300 13006KT P6SM SCT050 BKN080
     FM220600 VRB06KT P6SM SCT050 SCT100
     FM221500 32006KT P6SM FEW060 SCT140
     FM222000 25008KT P6SM FEW070 SCT140=

USA.gov is the U.S. government's official web portal to all federal, state and local government web resources and services.